Aérodrome :
LOGIN :

S'inscrire | Disclaimer

   EN    FR    IT 

 










Légende :    VFR   VFR Marginal   IFR   IFR Intensif   IFR Très Intensif
Visi : 
Plafond : 
>= 8 km
>= 3000ft
5 à 8 km
1000 à 3000 ft
1500m à 5 km
500 à 1000 ft
800 à 1500m
200 à 500 ft
< 800m
< 200 ft
Symboles :   Orages  Brouillard  Fortes neiges  Fortes précipitations  Vent > 20 kt
SIGMETs :   Divers  Orages  Givrage  Turbulence  Onde Orograph.  Cendres Volcan.






- Altitude de l'aérodrome : 16 ft
- Code IATA : LPX


EVLA - Liepaja

DERNIER METAR :
  • 281920Z AUTO 01004KT 330V030 9999 NCD 10/04 Q1028

METARs EXPIRÉS :
  • 281850Z AUTO 02005KT 9999 NCD 10/04 Q1028
  • 281820Z AUTO 01007KT 340V040 9999 NCD 11/03 Q1027
  • 281750Z AUTO 36006KT 330V030 9999 NCD 12/04 Q1027
  • 281720Z AUTO 01007KT 330V040 9999 NCD 12/03 Q1027
  • 281650Z AUTO 36008KT 330V040 9999 NCD 13/04 Q1027

TAF TAF EVLA
Valide du 28 à 18h jusqu'au 29 à 18h UTC


281700Z 2818/2918 35012KT CAVOK
TEMPO 2906/2909 36015G28KT
TEMPO 2909/2916 35015G30KT



MET'MAP, la Météo Aéronautique d'un coup d'oeil ! - Copyright ORBIFLY Décembre 2007 - Disclaimer

ORBIFLY MET'MAP TEAM :

Programmation & Développement : Alexandra Zaïnal
Sur une idée originale de : Baudouin d'Aumeries
Assistance à la programmation : Marc-Olivier Méhu
Soutien technique & logistique : Manuel Goepfert

Contact : metmap@orbifly.com




SOURCES & CREDITS :

   NOAA